sensor_id;sensor_type;location;lat;lon;timestamp;P1;durP1;ratioP1;P2;durP2;ratioP2
31114;SDS011;17764;47.152;9.828;2022-12-11T00:01:14;13.90;;;11.20;;
31114;SDS011;17764;47.152;9.828;2022-12-11T00:03:42;13.03;;;10.20;;
31114;SDS011;17764;47.152;9.828;2022-12-11T00:06:09;13.80;;;10.97;;
31114;SDS011;17764;47.152;9.828;2022-12-11T00:08:36;13.83;;;10.70;;
31114;SDS011;17764;47.152;9.828;2022-12-11T00:11:02;14.03;;;11.20;;
31114;SDS011;17764;47.152;9.828;2022-12-11T00:13:28;14.20;;;11.33;;
31114;SDS011;17764;47.152;9.828;2022-12-11T00:15:54;12.33;;;9.90;;
31114;SDS011;17764;47.152;9.828;2022-12-11T00:18:22;13.00;;;10.97;;
31114;SDS011;17764;47.152;9.828;2022-12-11T00:20:48;11.20;;;9.63;;
31114;SDS011;17764;47.152;9.828;2022-12-11T00:23:14;11.90;;;10.20;;
31114;SDS011;17764;47.152;9.828;2022-12-11T00:25:41;10.67;;;9.00;;
31114;SDS011;17764;47.152;9.828;2022-12-11T00:28:14;12.47;;;9.83;;
31114;SDS011;17764;47.152;9.828;2022-12-11T00:30:41;13.83;;;9.57;;
31114;SDS011;17764;47.152;9.828;2022-12-11T00:33:08;11.23;;;9.17;;
31114;SDS011;17764;47.152;9.828;2022-12-11T00:35:41;12.70;;;10.03;;
31114;SDS011;17764;47.152;9.828;2022-12-11T00:38:08;12.03;;;9.93;;
31114;SDS011;17764;47.152;9.828;2022-12-11T00:40:34;12.83;;;9.40;;
31114;SDS011;17764;47.152;9.828;2022-12-11T00:43:01;12.87;;;9.23;;
31114;SDS011;17764;47.152;9.828;2022-12-11T00:45:27;11.97;;;8.67;;
31114;SDS011;17764;47.152;9.828;2022-12-11T00:47:53;12.77;;;9.37;;
31114;SDS011;17764;47.152;9.828;2022-12-11T00:50:19;10.70;;;8.93;;
31114;SDS011;17764;47.152;9.828;2022-12-11T00:52:45;10.80;;;8.40;;
31114;SDS011;17764;47.152;9.828;2022-12-11T00:55:11;11.53;;;8.93;;
31114;SDS011;17764;47.152;9.828;2022-12-11T00:57:37;11.37;;;9.10;;
31114;SDS011;17764;47.152;9.828;2022-12-11T01:00:04;10.73;;;8.80;;
31114;SDS011;17764;47.152;9.828;2022-12-11T01:02:31;13.87;;;9.43;;
31114;SDS011;17764;47.152;9.828;2022-12-11T01:04:57;11.37;;;9.07;;
31114;SDS011;17764;47.152;9.828;2022-12-11T01:07:23;9.43;;;8.23;;
31114;SDS011;17764;47.152;9.828;2022-12-11T01:09:49;11.20;;;8.90;;
31114;SDS011;17764;47.152;9.828;2022-12-11T01:12:34;11.27;;;8.60;;
31114;SDS011;17764;47.152;9.828;2022-12-11T01:15:00;10.30;;;8.23;;
31114;SDS011;17764;47.152;9.828;2022-12-11T01:17:26;10.13;;;8.67;;
31114;SDS011;17764;47.152;9.828;2022-12-11T01:19:52;11.13;;;8.67;;
31114;SDS011;17764;47.152;9.828;2022-12-11T01:22:18;10.10;;;8.30;;
31114;SDS011;17764;47.152;9.828;2022-12-11T01:24:44;10.50;;;8.03;;
31114;SDS011;17764;47.152;9.828;2022-12-11T01:27:10;10.57;;;8.77;;
31114;SDS011;17764;47.152;9.828;2022-12-11T01:29:36;10.80;;;8.40;;
31114;SDS011;17764;47.152;9.828;2022-12-11T01:32:02;9.87;;;8.40;;
31114;SDS011;17764;47.152;9.828;2022-12-11T01:34:29;11.40;;;8.97;;
31114;SDS011;17764;47.152;9.828;2022-12-11T01:36:55;12.00;;;9.50;;
31114;SDS011;17764;47.152;9.828;2022-12-11T01:39:21;11.20;;;8.80;;
31114;SDS011;17764;47.152;9.828;2022-12-11T01:41:47;11.90;;;9.27;;
31114;SDS011;17764;47.152;9.828;2022-12-11T01:46:39;12.33;;;10.10;;
31114;SDS011;17764;47.152;9.828;2022-12-11T01:49:15;12.93;;;10.50;;
31114;SDS011;17764;47.152;9.828;2022-12-11T01:51:49;10.73;;;9.03;;
31114;SDS011;17764;47.152;9.828;2022-12-11T01:54:16;13.57;;;10.43;;
31114;SDS011;17764;47.152;9.828;2022-12-11T01:56:44;13.40;;;10.00;;
31114;SDS011;17764;47.152;9.828;2022-12-11T01:59:10;11.93;;;10.33;;
31114;SDS011;17764;47.152;9.828;2022-12-11T02:04:22;13.83;;;10.63;;
31114;SDS011;17764;47.152;9.828;2022-12-11T02:06:49;14.30;;;11.30;;
31114;SDS011;17764;47.152;9.828;2022-12-11T02:09:21;12.73;;;10.50;;
31114;SDS011;17764;47.152;9.828;2022-12-11T02:16:57;13.67;;;11.20;;
31114;SDS011;17764;47.152;9.828;2022-12-11T02:22:00;14.07;;;11.90;;
31114;SDS011;17764;47.152;9.828;2022-12-11T02:24:44;13.60;;;10.60;;
31114;SDS011;17764;47.152;9.828;2022-12-11T02:29:48;13.17;;;10.73;;
31114;SDS011;17764;47.152;9.828;2022-12-11T02:32:16;14.00;;;11.50;;
31114;SDS011;17764;47.152;9.828;2022-12-11T02:34:45;14.03;;;11.47;;
31114;SDS011;17764;47.152;9.828;2022-12-11T02:37:15;14.03;;;9.87;;
31114;SDS011;17764;47.152;9.828;2022-12-11T02:39:43;14.83;;;11.43;;
31114;SDS011;17764;47.152;9.828;2022-12-11T02:42:10;12.30;;;10.00;;
31114;SDS011;17764;47.152;9.828;2022-12-11T02:44:37;14.37;;;10.83;;
31114;SDS011;17764;47.152;9.828;2022-12-11T02:47:06;13.77;;;11.00;;
31114;SDS011;17764;47.152;9.828;2022-12-11T02:49:32;13.77;;;11.50;;
31114;SDS011;17764;47.152;9.828;2022-12-11T02:51:59;12.97;;;10.40;;
31114;SDS011;17764;47.152;9.828;2022-12-11T02:54:27;12.37;;;10.70;;
31114;SDS011;17764;47.152;9.828;2022-12-11T02:57:00;13.37;;;11.00;;
31114;SDS011;17764;47.152;9.828;2022-12-11T02:59:30;13.27;;;10.97;;
31114;SDS011;17764;47.152;9.828;2022-12-11T03:01:59;12.63;;;9.80;;
31114;SDS011;17764;47.152;9.828;2022-12-11T03:04:25;12.17;;;9.73;;
31114;SDS011;17764;47.152;9.828;2022-12-11T03:06:52;11.87;;;9.30;;
31114;SDS011;17764;47.152;9.828;2022-12-11T03:09:19;12.10;;;9.73;;
31114;SDS011;17764;47.152;9.828;2022-12-11T03:11:45;10.97;;;9.27;;
31114;SDS011;17764;47.152;9.828;2022-12-11T03:14:11;12.27;;;9.20;;
31114;SDS011;17764;47.152;9.828;2022-12-11T03:16:40;12.37;;;10.00;;
31114;SDS011;17764;47.152;9.828;2022-12-11T03:21:39;12.40;;;9.93;;
31114;SDS011;17764;47.152;9.828;2022-12-11T03:24:09;11.27;;;9.20;;
31114;SDS011;17764;47.152;9.828;2022-12-11T03:26:38;11.27;;;9.00;;
31114;SDS011;17764;47.152;9.828;2022-12-11T03:29:10;10.50;;;8.73;;
31114;SDS011;17764;47.152;9.828;2022-12-11T03:31:38;12.60;;;9.80;;
31114;SDS011;17764;47.152;9.828;2022-12-11T03:34:19;13.00;;;9.97;;
31114;SDS011;17764;47.152;9.828;2022-12-11T03:36:47;11.87;;;9.53;;
31114;SDS011;17764;47.152;9.828;2022-12-11T03:39:15;12.57;;;9.50;;
31114;SDS011;17764;47.152;9.828;2022-12-11T03:41:43;10.97;;;8.40;;
31114;SDS011;17764;47.152;9.828;2022-12-11T03:44:10;10.57;;;8.47;;
31114;SDS011;17764;47.152;9.828;2022-12-11T03:46:37;9.87;;;8.47;;
31114;SDS011;17764;47.152;9.828;2022-12-11T03:49:05;11.03;;;8.87;;
31114;SDS011;17764;47.152;9.828;2022-12-11T03:51:32;9.87;;;8.00;;
31114;SDS011;17764;47.152;9.828;2022-12-11T03:53:58;9.73;;;7.87;;
31114;SDS011;17764;47.152;9.828;2022-12-11T03:56:26;10.53;;;8.40;;
31114;SDS011;17764;47.152;9.828;2022-12-11T03:58:53;8.93;;;7.43;;
31114;SDS011;17764;47.152;9.828;2022-12-11T04:01:19;10.27;;;8.17;;
31114;SDS011;17764;47.152;9.828;2022-12-11T04:03:45;9.27;;;7.47;;
31114;SDS011;17764;47.152;9.828;2022-12-11T04:06:11;7.93;;;6.30;;
31114;SDS011;17764;47.152;9.828;2022-12-11T04:08:37;8.17;;;6.50;;
31114;SDS011;17764;47.152;9.828;2022-12-11T04:11:03;7.40;;;6.10;;
31114;SDS011;17764;47.152;9.828;2022-12-11T04:13:48;7.90;;;6.07;;
31114;SDS011;17764;47.152;9.828;2022-12-11T04:16:32;8.37;;;5.97;;
31114;SDS011;17764;47.152;9.828;2022-12-11T04:18:58;7.47;;;6.40;;
31114;SDS011;17764;47.152;9.828;2022-12-11T04:21:43;7.40;;;6.03;;
31114;SDS011;17764;47.152;9.828;2022-12-11T04:24:35;8.00;;;6.37;;
31114;SDS011;17764;47.152;9.828;2022-12-11T04:27:01;7.57;;;6.17;;
31114;SDS011;17764;47.152;9.828;2022-12-11T04:29:27;8.13;;;6.33;;
31114;SDS011;17764;47.152;9.828;2022-12-11T04:31:53;8.37;;;6.80;;
31114;SDS011;17764;47.152;9.828;2022-12-11T04:34:19;8.37;;;6.13;;
31114;SDS011;17764;47.152;9.828;2022-12-11T04:36:45;10.37;;;7.70;;
31114;SDS011;17764;47.152;9.828;2022-12-11T04:39:11;10.73;;;7.27;;
31114;SDS011;17764;47.152;9.828;2022-12-11T04:41:37;11.23;;;7.97;;
31114;SDS011;17764;47.152;9.828;2022-12-11T04:44:05;10.13;;;7.83;;
31114;SDS011;17764;47.152;9.828;2022-12-11T04:46:31;11.30;;;8.67;;
31114;SDS011;17764;47.152;9.828;2022-12-11T04:48:57;11.13;;;8.87;;
31114;SDS011;17764;47.152;9.828;2022-12-11T04:51:24;11.77;;;9.63;;
31114;SDS011;17764;47.152;9.828;2022-12-11T04:53:51;11.23;;;9.50;;
31114;SDS011;17764;47.152;9.828;2022-12-11T04:56:17;12.57;;;10.20;;
31114;SDS011;17764;47.152;9.828;2022-12-11T04:58:43;12.23;;;9.67;;
31114;SDS011;17764;47.152;9.828;2022-12-11T05:01:10;13.27;;;10.47;;
31114;SDS011;17764;47.152;9.828;2022-12-11T05:03:36;12.70;;;9.77;;
31114;SDS011;17764;47.152;9.828;2022-12-11T05:06:02;14.27;;;11.53;;
31114;SDS011;17764;47.152;9.828;2022-12-11T05:08:28;13.23;;;10.47;;
31114;SDS011;17764;47.152;9.828;2022-12-11T05:10:58;11.87;;;9.67;;
31114;SDS011;17764;47.152;9.828;2022-12-11T05:13:25;14.83;;;11.07;;
31114;SDS011;17764;47.152;9.828;2022-12-11T05:15:51;13.40;;;10.53;;
31114;SDS011;17764;47.152;9.828;2022-12-11T05:18:17;13.13;;;10.07;;
31114;SDS011;17764;47.152;9.828;2022-12-11T05:20:43;12.87;;;10.00;;
31114;SDS011;17764;47.152;9.828;2022-12-11T05:23:09;13.47;;;10.60;;
31114;SDS011;17764;47.152;9.828;2022-12-11T05:25:35;11.33;;;9.27;;
31114;SDS011;17764;47.152;9.828;2022-12-11T05:28:01;14.67;;;10.20;;
31114;SDS011;17764;47.152;9.828;2022-12-11T05:30:28;12.53;;;10.33;;
31114;SDS011;17764;47.152;9.828;2022-12-11T05:32:54;12.70;;;10.03;;
31114;SDS011;17764;47.152;9.828;2022-12-11T05:35:20;11.83;;;9.73;;
31114;SDS011;17764;47.152;9.828;2022-12-11T05:37:46;12.70;;;10.63;;
31114;SDS011;17764;47.152;9.828;2022-12-11T05:40:12;14.67;;;10.83;;
31114;SDS011;17764;47.152;9.828;2022-12-11T05:42:38;12.87;;;10.47;;
31114;SDS011;17764;47.152;9.828;2022-12-11T05:45:04;11.90;;;9.47;;
31114;SDS011;17764;47.152;9.828;2022-12-11T05:47:31;15.30;;;11.23;;
31114;SDS011;17764;47.152;9.828;2022-12-11T05:49:57;12.57;;;10.37;;
31114;SDS011;17764;47.152;9.828;2022-12-11T05:52:23;14.30;;;10.70;;
31114;SDS011;17764;47.152;9.828;2022-12-11T05:54:49;13.83;;;10.77;;
31114;SDS011;17764;47.152;9.828;2022-12-11T05:57:15;13.03;;;10.47;;
31114;SDS011;17764;47.152;9.828;2022-12-11T05:59:41;14.70;;;11.00;;
31114;SDS011;17764;47.152;9.828;2022-12-11T06:02:07;14.77;;;11.33;;
31114;SDS011;17764;47.152;9.828;2022-12-11T06:04:33;15.93;;;11.70;;
31114;SDS011;17764;47.152;9.828;2022-12-11T06:06:59;13.27;;;11.07;;
31114;SDS011;17764;47.152;9.828;2022-12-11T06:09:25;14.47;;;11.07;;
31114;SDS011;17764;47.152;9.828;2022-12-11T06:11:51;14.37;;;11.40;;
31114;SDS011;17764;47.152;9.828;2022-12-11T06:14:17;14.57;;;11.80;;
31114;SDS011;17764;47.152;9.828;2022-12-11T06:16:43;14.40;;;11.80;;
31114;SDS011;17764;47.152;9.828;2022-12-11T06:19:13;14.13;;;11.80;;
31114;SDS011;17764;47.152;9.828;2022-12-11T06:21:39;14.80;;;11.73;;
31114;SDS011;17764;47.152;9.828;2022-12-11T06:24:05;15.47;;;11.57;;
31114;SDS011;17764;47.152;9.828;2022-12-11T06:26:31;14.47;;;11.70;;
31114;SDS011;17764;47.152;9.828;2022-12-11T06:28:57;14.43;;;11.10;;
31114;SDS011;17764;47.152;9.828;2022-12-11T06:31:23;13.60;;;10.67;;
31114;SDS011;17764;47.152;9.828;2022-12-11T06:33:49;14.90;;;10.97;;
31114;SDS011;17764;47.152;9.828;2022-12-11T06:36:16;12.73;;;10.10;;
31114;SDS011;17764;47.152;9.828;2022-12-11T06:38:43;13.43;;;11.10;;
31114;SDS011;17764;47.152;9.828;2022-12-11T06:41:09;16.13;;;11.30;;
31114;SDS011;17764;47.152;9.828;2022-12-11T06:43:36;16.07;;;11.90;;
31114;SDS011;17764;47.152;9.828;2022-12-11T06:46:03;13.03;;;10.60;;
31114;SDS011;17764;47.152;9.828;2022-12-11T06:48:29;15.27;;;11.53;;
31114;SDS011;17764;47.152;9.828;2022-12-11T06:50:55;15.30;;;11.20;;
31114;SDS011;17764;47.152;9.828;2022-12-11T06:53:21;15.17;;;12.03;;
31114;SDS011;17764;47.152;9.828;2022-12-11T06:55:48;15.77;;;11.43;;
31114;SDS011;17764;47.152;9.828;2022-12-11T06:58:14;14.67;;;11.53;;
31114;SDS011;17764;47.152;9.828;2022-12-11T07:00:40;15.17;;;11.53;;
31114;SDS011;17764;47.152;9.828;2022-12-11T07:03:06;15.33;;;12.20;;
31114;SDS011;17764;47.152;9.828;2022-12-11T07:05:32;17.20;;;12.93;;
31114;SDS011;17764;47.152;9.828;2022-12-11T07:07:58;17.57;;;13.07;;
31114;SDS011;17764;47.152;9.828;2022-12-11T07:10:25;15.60;;;12.07;;
31114;SDS011;17764;47.152;9.828;2022-12-11T07:12:51;16.83;;;13.13;;
31114;SDS011;17764;47.152;9.828;2022-12-11T07:15:18;18.83;;;14.17;;
31114;SDS011;17764;47.152;9.828;2022-12-11T07:17:44;17.13;;;13.27;;
31114;SDS011;17764;47.152;9.828;2022-12-11T07:20:10;17.13;;;13.20;;
31114;SDS011;17764;47.152;9.828;2022-12-11T07:22:36;18.47;;;14.47;;
31114;SDS011;17764;47.152;9.828;2022-12-11T07:25:02;17.93;;;13.80;;
31114;SDS011;17764;47.152;9.828;2022-12-11T07:27:29;19.70;;;13.27;;
31114;SDS011;17764;47.152;9.828;2022-12-11T07:29:55;18.93;;;14.20;;
31114;SDS011;17764;47.152;9.828;2022-12-11T07:32:21;17.83;;;13.20;;
31114;SDS011;17764;47.152;9.828;2022-12-11T07:34:47;17.37;;;13.57;;
31114;SDS011;17764;47.152;9.828;2022-12-11T07:37:13;18.13;;;13.67;;
31114;SDS011;17764;47.152;9.828;2022-12-11T07:39:39;18.17;;;13.47;;
31114;SDS011;17764;47.152;9.828;2022-12-11T07:42:05;16.57;;;12.80;;
31114;SDS011;17764;47.152;9.828;2022-12-11T07:44:31;19.73;;;13.60;;
31114;SDS011;17764;47.152;9.828;2022-12-11T07:46:57;16.43;;;12.60;;
31114;SDS011;17764;47.152;9.828;2022-12-11T07:49:23;18.07;;;13.97;;
31114;SDS011;17764;47.152;9.828;2022-12-11T07:51:49;15.87;;;12.13;;
31114;SDS011;17764;47.152;9.828;2022-12-11T07:54:15;16.23;;;12.53;;
31114;SDS011;17764;47.152;9.828;2022-12-11T07:56:42;18.43;;;13.07;;
31114;SDS011;17764;47.152;9.828;2022-12-11T07:59:08;17.37;;;12.93;;
31114;SDS011;17764;47.152;9.828;2022-12-11T08:01:35;15.93;;;12.27;;
31114;SDS011;17764;47.152;9.828;2022-12-11T08:04:01;18.10;;;13.10;;
31114;SDS011;17764;47.152;9.828;2022-12-11T08:06:28;16.83;;;12.90;;
31114;SDS011;17764;47.152;9.828;2022-12-11T08:08:55;16.23;;;12.57;;
31114;SDS011;17764;47.152;9.828;2022-12-11T08:11:21;17.20;;;12.87;;
31114;SDS011;17764;47.152;9.828;2022-12-11T08:13:48;17.27;;;13.57;;
31114;SDS011;17764;47.152;9.828;2022-12-11T08:16:14;15.07;;;11.70;;
31114;SDS011;17764;47.152;9.828;2022-12-11T08:18:41;16.00;;;12.63;;
31114;SDS011;17764;47.152;9.828;2022-12-11T08:23:36;16.63;;;12.07;;
31114;SDS011;17764;47.152;9.828;2022-12-11T08:26:03;16.23;;;12.33;;
31114;SDS011;17764;47.152;9.828;2022-12-11T08:28:30;15.30;;;12.67;;
31114;SDS011;17764;47.152;9.828;2022-12-11T08:30:56;17.87;;;13.60;;
31114;SDS011;17764;47.152;9.828;2022-12-11T08:33:22;16.23;;;12.37;;
31114;SDS011;17764;47.152;9.828;2022-12-11T08:35:48;17.30;;;12.47;;
31114;SDS011;17764;47.152;9.828;2022-12-11T08:38:14;15.63;;;12.73;;
31114;SDS011;17764;47.152;9.828;2022-12-11T08:40:40;16.57;;;12.27;;
31114;SDS011;17764;47.152;9.828;2022-12-11T08:43:06;16.90;;;13.23;;
31114;SDS011;17764;47.152;9.828;2022-12-11T08:45:33;17.40;;;13.30;;
31114;SDS011;17764;47.152;9.828;2022-12-11T08:47:59;16.27;;;12.53;;
31114;SDS011;17764;47.152;9.828;2022-12-11T08:50:25;17.00;;;12.27;;
31114;SDS011;17764;47.152;9.828;2022-12-11T08:52:51;15.47;;;11.50;;
31114;SDS011;17764;47.152;9.828;2022-12-11T08:55:18;16.40;;;12.27;;
31114;SDS011;17764;47.152;9.828;2022-12-11T08:57:44;17.13;;;12.60;;
31114;SDS011;17764;47.152;9.828;2022-12-11T09:00:10;15.97;;;11.70;;
31114;SDS011;17764;47.152;9.828;2022-12-11T09:02:37;17.87;;;13.23;;
31114;SDS011;17764;47.152;9.828;2022-12-11T09:05:03;17.03;;;13.57;;
31114;SDS011;17764;47.152;9.828;2022-12-11T09:07:32;14.53;;;11.97;;
31114;SDS011;17764;47.152;9.828;2022-12-11T09:09:58;17.23;;;12.93;;
31114;SDS011;17764;47.152;9.828;2022-12-11T09:12:25;17.20;;;13.00;;
31114;SDS011;17764;47.152;9.828;2022-12-11T09:14:51;17.37;;;13.43;;
31114;SDS011;17764;47.152;9.828;2022-12-11T09:17:17;17.43;;;13.63;;
31114;SDS011;17764;47.152;9.828;2022-12-11T09:19:43;17.30;;;13.03;;
31114;SDS011;17764;47.152;9.828;2022-12-11T09:22:09;16.90;;;13.57;;
31114;SDS011;17764;47.152;9.828;2022-12-11T09:24:36;17.47;;;13.00;;
31114;SDS011;17764;47.152;9.828;2022-12-11T09:27:03;18.17;;;13.63;;
31114;SDS011;17764;47.152;9.828;2022-12-11T09:29:29;16.20;;;13.60;;
31114;SDS011;17764;47.152;9.828;2022-12-11T09:31:55;17.30;;;13.30;;
31114;SDS011;17764;47.152;9.828;2022-12-11T09:34:21;17.20;;;13.53;;
31114;SDS011;17764;47.152;9.828;2022-12-11T09:36:47;15.70;;;12.73;;
31114;SDS011;17764;47.152;9.828;2022-12-11T09:39:14;15.73;;;12.80;;
31114;SDS011;17764;47.152;9.828;2022-12-11T09:47:00;17.00;;;13.13;;
31114;SDS011;17764;47.152;9.828;2022-12-11T09:49:34;16.73;;;12.83;;
31114;SDS011;17764;47.152;9.828;2022-12-11T09:52:12;16.20;;;13.17;;
31114;SDS011;17764;47.152;9.828;2022-12-11T09:54:43;16.73;;;11.93;;
31114;SDS011;17764;47.152;9.828;2022-12-11T09:57:17;15.70;;;12.30;;
31114;SDS011;17764;47.152;9.828;2022-12-11T10:02:34;15.40;;;11.70;;
31114;SDS011;17764;47.152;9.828;2022-12-11T10:07:44;16.23;;;10.90;;
31114;SDS011;17764;47.152;9.828;2022-12-11T10:12:58;13.47;;;9.43;;
31114;SDS011;17764;47.152;9.828;2022-12-11T10:15:29;11.50;;;9.00;;
31114;SDS011;17764;47.152;9.828;2022-12-11T10:17:59;11.77;;;9.23;;
31114;SDS011;17764;47.152;9.828;2022-12-11T10:20:32;11.77;;;9.07;;
31114;SDS011;17764;47.152;9.828;2022-12-11T10:23:04;11.83;;;9.23;;
31114;SDS011;17764;47.152;9.828;2022-12-11T10:25:32;13.33;;;10.30;;
31114;SDS011;17764;47.152;9.828;2022-12-11T10:27:59;12.87;;;10.13;;
31114;SDS011;17764;47.152;9.828;2022-12-11T10:30:35;13.40;;;10.27;;
31114;SDS011;17764;47.152;9.828;2022-12-11T10:33:21;12.87;;;9.20;;
31114;SDS011;17764;47.152;9.828;2022-12-11T10:35:52;11.70;;;9.03;;
31114;SDS011;17764;47.152;9.828;2022-12-11T10:38:20;13.60;;;9.33;;
31114;SDS011;17764;47.152;9.828;2022-12-11T10:40:48;11.53;;;9.20;;
31114;SDS011;17764;47.152;9.828;2022-12-11T10:43:14;12.60;;;10.07;;
31114;SDS011;17764;47.152;9.828;2022-12-11T10:45:48;13.60;;;10.33;;
31114;SDS011;17764;47.152;9.828;2022-12-11T10:48:15;14.77;;;10.00;;
31114;SDS011;17764;47.152;9.828;2022-12-11T10:50:41;12.47;;;9.80;;
31114;SDS011;17764;47.152;9.828;2022-12-11T10:53:19;12.40;;;9.47;;
31114;SDS011;17764;47.152;9.828;2022-12-11T10:55:45;15.60;;;11.20;;
31114;SDS011;17764;47.152;9.828;2022-12-11T10:58:17;13.20;;;10.27;;
31114;SDS011;17764;47.152;9.828;2022-12-11T11:00:44;16.07;;;10.93;;
31114;SDS011;17764;47.152;9.828;2022-12-11T11:03:20;14.17;;;10.63;;
31114;SDS011;17764;47.152;9.828;2022-12-11T11:05:47;14.20;;;10.80;;
31114;SDS011;17764;47.152;9.828;2022-12-11T11:08:19;12.97;;;10.30;;
31114;SDS011;17764;47.152;9.828;2022-12-11T11:13:15;13.97;;;11.00;;
31114;SDS011;17764;47.152;9.828;2022-12-11T11:15:41;14.87;;;11.07;;
31114;SDS011;17764;47.152;9.828;2022-12-11T11:18:26;13.37;;;10.67;;
31114;SDS011;17764;47.152;9.828;2022-12-11T11:20:52;13.33;;;10.33;;
31114;SDS011;17764;47.152;9.828;2022-12-11T11:23:19;13.43;;;10.27;;
31114;SDS011;17764;47.152;9.828;2022-12-11T11:25:50;12.77;;;9.97;;
31114;SDS011;17764;47.152;9.828;2022-12-11T11:28:19;13.23;;;10.50;;
31114;SDS011;17764;47.152;9.828;2022-12-11T11:33:21;15.03;;;10.20;;
31114;SDS011;17764;47.152;9.828;2022-12-11T11:35:51;17.40;;;11.80;;
31114;SDS011;17764;47.152;9.828;2022-12-11T11:38:18;14.87;;;11.07;;
31114;SDS011;17764;47.152;9.828;2022-12-11T11:40:57;14.93;;;11.27;;
31114;SDS011;17764;47.152;9.828;2022-12-11T11:43:29;14.60;;;10.67;;
31114;SDS011;17764;47.152;9.828;2022-12-11T11:48:28;12.07;;;9.43;;
31114;SDS011;17764;47.152;9.828;2022-12-11T11:50:56;11.50;;;8.50;;
31114;SDS011;17764;47.152;9.828;2022-12-11T11:53:32;11.03;;;8.97;;
31114;SDS011;17764;47.152;9.828;2022-12-11T12:00:59;9.47;;;7.87;;
31114;SDS011;17764;47.152;9.828;2022-12-11T12:03:25;10.60;;;7.90;;
31114;SDS011;17764;47.152;9.828;2022-12-11T12:08:29;9.60;;;7.70;;
31114;SDS011;17764;47.152;9.828;2022-12-11T12:16:18;8.20;;;6.70;;
31114;SDS011;17764;47.152;9.828;2022-12-11T12:18:55;9.20;;;6.67;;
31114;SDS011;17764;47.152;9.828;2022-12-11T12:21:30;8.70;;;6.93;;
31114;SDS011;17764;47.152;9.828;2022-12-11T12:26:34;9.37;;;6.83;;
31114;SDS011;17764;47.152;9.828;2022-12-11T12:29:11;9.20;;;7.20;;
31114;SDS011;17764;47.152;9.828;2022-12-11T12:32:24;9.17;;;6.73;;
31114;SDS011;17764;47.152;9.828;2022-12-11T12:38:18;7.73;;;5.90;;
31114;SDS011;17764;47.152;9.828;2022-12-11T12:40:31;7.57;;;6.00;;
31114;SDS011;17764;47.152;9.828;2022-12-11T12:45:44;8.90;;;6.43;;
31114;SDS011;17764;47.152;9.828;2022-12-11T12:48:11;8.60;;;6.23;;
31114;SDS011;17764;47.152;9.828;2022-12-11T12:50:41;6.03;;;5.17;;
31114;SDS011;17764;47.152;9.828;2022-12-11T12:53:08;7.23;;;5.60;;
31114;SDS011;17764;47.152;9.828;2022-12-11T12:55:41;7.77;;;6.00;;
31114;SDS011;17764;47.152;9.828;2022-12-11T12:58:22;8.57;;;5.60;;
31114;SDS011;17764;47.152;9.828;2022-12-11T13:00:49;7.63;;;5.80;;
31114;SDS011;17764;47.152;9.828;2022-12-11T13:03:19;7.73;;;6.10;;
31114;SDS011;17764;47.152;9.828;2022-12-11T13:08:25;7.60;;;6.40;;
31114;SDS011;17764;47.152;9.828;2022-12-11T13:10:57;7.13;;;6.07;;
31114;SDS011;17764;47.152;9.828;2022-12-11T13:13:35;8.23;;;6.67;;
31114;SDS011;17764;47.152;9.828;2022-12-11T13:16:07;8.13;;;6.60;;
31114;SDS011;17764;47.152;9.828;2022-12-11T13:21:00;6.53;;;4.73;;
31114;SDS011;17764;47.152;9.828;2022-12-11T13:23:33;6.20;;;4.80;;
31114;SDS011;17764;47.152;9.828;2022-12-11T13:26:00;4.73;;;3.97;;
31114;SDS011;17764;47.152;9.828;2022-12-11T13:31:44;4.40;;;3.80;;
31114;SDS011;17764;47.152;9.828;2022-12-11T13:33:50;4.47;;;3.50;;
31114;SDS011;17764;47.152;9.828;2022-12-11T13:38:45;4.50;;;3.40;;
31114;SDS011;17764;47.152;9.828;2022-12-11T13:41:11;3.83;;;3.30;;
31114;SDS011;17764;47.152;9.828;2022-12-11T13:43:38;4.93;;;3.27;;
31114;SDS011;17764;47.152;9.828;2022-12-11T13:46:07;5.00;;;3.77;;
31114;SDS011;17764;47.152;9.828;2022-12-11T13:51:00;5.00;;;3.97;;
31114;SDS011;17764;47.152;9.828;2022-12-11T13:53:27;4.83;;;4.03;;
31114;SDS011;17764;47.152;9.828;2022-12-11T13:58:22;4.47;;;3.77;;
31114;SDS011;17764;47.152;9.828;2022-12-11T14:00:52;4.57;;;4.00;;
31114;SDS011;17764;47.152;9.828;2022-12-11T14:03:19;6.17;;;4.37;;
31114;SDS011;17764;47.152;9.828;2022-12-11T14:05:45;9.10;;;6.43;;
31114;SDS011;17764;47.152;9.828;2022-12-11T14:08:11;9.53;;;6.60;;
31114;SDS011;17764;47.152;9.828;2022-12-11T14:10:37;9.37;;;7.03;;
31114;SDS011;17764;47.152;9.828;2022-12-11T14:13:18;9.53;;;7.20;;
31114;SDS011;17764;47.152;9.828;2022-12-11T14:15:45;8.73;;;6.80;;
31114;SDS011;17764;47.152;9.828;2022-12-11T14:18:13;8.80;;;6.77;;
31114;SDS011;17764;47.152;9.828;2022-12-11T14:20:39;8.60;;;7.03;;
31114;SDS011;17764;47.152;9.828;2022-12-11T14:23:06;7.13;;;5.60;;
31114;SDS011;17764;47.152;9.828;2022-12-11T14:25:33;6.40;;;5.40;;
31114;SDS011;17764;47.152;9.828;2022-12-11T14:27:59;7.30;;;5.80;;
31114;SDS011;17764;47.152;9.828;2022-12-11T14:30:29;6.30;;;5.20;;
31114;SDS011;17764;47.152;9.828;2022-12-11T14:32:57;6.90;;;5.43;;
31114;SDS011;17764;47.152;9.828;2022-12-11T14:35:31;11.03;;;6.30;;
31114;SDS011;17764;47.152;9.828;2022-12-11T14:37:59;10.83;;;6.27;;
31114;SDS011;17764;47.152;9.828;2022-12-11T14:40:27;11.80;;;7.00;;
31114;SDS011;17764;47.152;9.828;2022-12-11T14:42:56;16.37;;;9.77;;
31114;SDS011;17764;47.152;9.828;2022-12-11T14:45:32;21.27;;;13.83;;
31114;SDS011;17764;47.152;9.828;2022-12-11T14:47:59;20.93;;;14.17;;
31114;SDS011;17764;47.152;9.828;2022-12-11T14:50:29;19.77;;;13.23;;
31114;SDS011;17764;47.152;9.828;2022-12-11T14:52:58;16.03;;;11.77;;
31114;SDS011;17764;47.152;9.828;2022-12-11T14:55:30;15.77;;;11.77;;
31114;SDS011;17764;47.152;9.828;2022-12-11T14:57:59;14.63;;;10.97;;
31114;SDS011;17764;47.152;9.828;2022-12-11T15:00:28;13.60;;;10.00;;
31114;SDS011;17764;47.152;9.828;2022-12-11T15:02:59;13.27;;;9.10;;
31114;SDS011;17764;47.152;9.828;2022-12-11T15:05:26;12.00;;;8.40;;
31114;SDS011;17764;47.152;9.828;2022-12-11T15:07:59;10.63;;;7.93;;
31114;SDS011;17764;47.152;9.828;2022-12-11T15:12:52;10.70;;;7.33;;
31114;SDS011;17764;47.152;9.828;2022-12-11T15:15:19;12.33;;;8.70;;
31114;SDS011;17764;47.152;9.828;2022-12-11T15:17:45;11.47;;;8.20;;
31114;SDS011;17764;47.152;9.828;2022-12-11T15:23:07;13.53;;;9.27;;
31114;SDS011;17764;47.152;9.828;2022-12-11T15:25:33;11.83;;;8.50;;
31114;SDS011;17764;47.152;9.828;2022-12-11T15:27:59;11.83;;;8.10;;
31114;SDS011;17764;47.152;9.828;2022-12-11T15:30:27;9.53;;;6.93;;
31114;SDS011;17764;47.152;9.828;2022-12-11T15:35:28;10.07;;;6.63;;
31114;SDS011;17764;47.152;9.828;2022-12-11T15:37:56;12.50;;;8.10;;
31114;SDS011;17764;47.152;9.828;2022-12-11T15:40:22;12.00;;;9.43;;
31114;SDS011;17764;47.152;9.828;2022-12-11T15:42:49;11.97;;;8.60;;
31114;SDS011;17764;47.152;9.828;2022-12-11T15:45:22;11.97;;;8.90;;
31114;SDS011;17764;47.152;9.828;2022-12-11T15:47:50;10.70;;;8.57;;
31114;SDS011;17764;47.152;9.828;2022-12-11T15:50:23;9.33;;;6.70;;
31114;SDS011;17764;47.152;9.828;2022-12-11T15:52:50;10.80;;;7.53;;
31114;SDS011;17764;47.152;9.828;2022-12-11T15:55:17;9.67;;;6.67;;
31114;SDS011;17764;47.152;9.828;2022-12-11T15:57:44;11.60;;;7.40;;
31114;SDS011;17764;47.152;9.828;2022-12-11T16:00:15;7.87;;;6.10;;
31114;SDS011;17764;47.152;9.828;2022-12-11T16:02:42;9.33;;;6.93;;